Time;durP1;ratioP1;P1;durP2;ratioP2;P2;SDS_P1;SDS_P2;PMS_P1;PMS_P2;Temp;Humidity;BMP_temperature;BMP_pressure;BME280_temperature;BME280_humidity;BME280_pressure;Samples;Min_cycle;Max_cycle;Signal;HPM_P1;HPM_P2
2023/10/20 00:01:52;;;;;;;0.52;0.47;;;;;;;;;;5119619;27;20430;-77
2023/10/20 00:04:19;;;;;;;0.15;0.15;;;;;;;;;;5120070;27;20052;-80
2023/10/20 00:06:45;;;;;;;0.55;0.52;;;;;;;;;;5118457;27;20138;-79
2023/10/20 00:09:14;;;;;;;0.82;0.65;;;;;;;;;;5120092;27;20084;-79
2023/10/20 00:11:45;;;;;;;0.10;0.10;;;;;;;;;;5114982;27;20056;-78
2023/10/20 00:14:11;;;;;;;0.20;0.20;;;;;;;;;;5123321;27;20121;-79
2023/10/20 00:16:38;;;;;;;0.40;0.38;;;;;;;;;;5121113;27;20147;-78
2023/10/20 00:19:04;;;;;;;0.25;0.25;;;;;;;;;;5107613;27;20048;-80
2023/10/20 00:21:31;;;;;;;0.45;0.35;;;;;;;;;;5126195;27;20575;-80
2023/10/20 00:23:57;;;;;;;0.98;0.93;;;;;;;;;;5126117;27;20198;-80
2023/10/20 00:26:23;;;;;;;0.20;0.20;;;;;;;;;;5126612;27;20525;-78
2023/10/20 00:28:50;;;;;;;0.20;0.20;;;;;;;;;;5195733;22;20044;-82
2023/10/20 00:31:16;;;;;;;0.13;0.13;;;;;;;;;;5126312;27;20051;-82
2023/10/20 00:33:45;;;;;;;0.20;0.20;;;;;;;;;;5112448;27;20047;-81
2023/10/20 00:36:12;;;;;;;0.80;0.77;;;;;;;;;;5110971;27;20152;-82
2023/10/20 00:38:42;;;;;;;2.13;1.70;;;;;;;;;;5113925;27;20136;-82
2023/10/20 00:41:09;;;;;;;0.43;0.38;;;;;;;;;;5112099;27;20102;-82
2023/10/20 00:43:36;;;;;;;0.20;0.20;;;;;;;;;;5115756;27;20103;-81
2023/10/20 00:46:04;;;;;;;0.20;0.20;;;;;;;;;;5114046;27;20122;-82
2023/10/20 00:48:31;;;;;;;1.10;0.82;;;;;;;;;;5112962;27;20040;-82
2023/10/20 00:51:00;;;;;;;0.88;0.65;;;;;;;;;;5129641;27;20055;-82
2023/10/20 00:53:27;;;;;;;5.15;1.23;;;;;;;;;;5114455;27;20130;-83
2023/10/20 00:55:57;;;;;;;1.00;0.88;;;;;;;;;;5108261;27;20066;-82
2023/10/20 00:58:27;;;;;;;1.42;1.33;;;;;;;;;;5115542;27;20531;-83
2023/10/20 01:00:54;;;;;;;0.30;0.30;;;;;;;;;;5106147;27;20134;-81
2023/10/20 01:03:22;;;;;;;0.68;0.57;;;;;;;;;;5121029;27;20051;-82
2023/10/20 01:05:51;;;;;;;1.00;0.90;;;;;;;;;;5114672;27;20522;-81
2023/10/20 01:08:18;;;;;;;0.30;0.30;;;;;;;;;;5137871;27;20063;-84
2023/10/20 01:10:44;;;;;;;0.20;0.20;;;;;;;;;;5130796;27;20062;-82
2023/10/20 01:13:11;;;;;;;1.52;1.23;;;;;;;;;;5132305;27;20052;-82
2023/10/20 01:15:37;;;;;;;1.60;0.75;;;;;;;;;;5121454;27;20051;-82
2023/10/20 01:18:04;;;;;;;3.30;1.48;;;;;;;;;;5128813;27;20072;-81
2023/10/20 01:20:31;;;;;;;0.55;0.50;;;;;;;;;;5120474;27;20056;-82
2023/10/20 01:22:59;;;;;;;0.65;0.40;;;;;;;;;;5136060;27;20055;-82
2023/10/20 01:25:26;;;;;;;0.47;0.30;;;;;;;;;;5115073;27;20087;-82
2023/10/20 01:27:53;;;;;;;1.05;0.95;;;;;;;;;;5135024;27;20087;-82
2023/10/20 01:30:21;;;;;;;0.40;0.40;;;;;;;;;;5113571;27;20534;-82
2023/10/20 01:32:47;;;;;;;0.60;0.60;;;;;;;;;;5115937;27;20036;-82
2023/10/20 01:35:14;;;;;;;2.47;0.82;;;;;;;;;;5110320;27;20055;-82
2023/10/20 01:37:41;;;;;;;1.85;1.52;;;;;;;;;;5125351;27;20113;-82
2023/10/20 01:40:09;;;;;;;0.17;0.17;;;;;;;;;;5115632;27;20058;-82
2023/10/20 01:42:36;;;;;;;0.40;0.40;;;;;;;;;;5121371;27;20065;-83
2023/10/20 01:45:02;;;;;;;0.20;0.20;;;;;;;;;;5136730;27;20079;-82
2023/10/20 01:47:29;;;;;;;0.57;0.47;;;;;;;;;;5133169;27;20051;-82
2023/10/20 01:49:56;;;;;;;0.52;0.43;;;;;;;;;;5110090;27;20133;-83
2023/10/20 01:52:22;;;;;;;1.10;0.77;;;;;;;;;;5106698;27;20059;-82
2023/10/20 01:54:48;;;;;;;1.35;0.95;;;;;;;;;;5129567;27;20109;-82
2023/10/20 01:57:15;;;;;;;0.43;0.43;;;;;;;;;;5112334;27;20056;-82
2023/10/20 01:59:41;;;;;;;2.30;1.88;;;;;;;;;;5114428;27;20573;-82
2023/10/20 02:02:08;;;;;;;0.13;0.13;;;;;;;;;;5134506;27;20885;-83
2023/10/20 02:04:35;;;;;;;0.25;0.25;;;;;;;;;;5126146;27;20077;-82
2023/10/20 02:07:02;;;;;;;1.73;1.15;;;;;;;;;;5111564;27;20043;-83
2023/10/20 02:09:28;;;;;;;0.52;0.50;;;;;;;;;;5108614;27;20078;-82
2023/10/20 02:11:58;;;;;;;0.63;0.63;;;;;;;;;;5135802;27;20817;-82
2023/10/20 02:14:25;;;;;;;6.15;2.17;;;;;;;;;;5133049;27;20091;-82
2023/10/20 02:16:52;;;;;;;1.50;1.48;;;;;;;;;;5131340;27;20052;-83
2023/10/20 02:19:21;;;;;;;0.47;0.30;;;;;;;;;;5115446;27;20048;-83
2023/10/20 02:21:48;;;;;;;2.30;0.80;;;;;;;;;;5115976;27;20164;-82
2023/10/20 02:24:14;;;;;;;2.22;0.95;;;;;;;;;;5109262;27;20059;-83
2023/10/20 02:26:41;;;;;;;1.23;1.13;;;;;;;;;;5129183;27;20048;-82
2023/10/20 02:29:07;;;;;;;0.50;0.50;;;;;;;;;;5113834;27;20052;-82
2023/10/20 02:31:34;;;;;;;0.57;0.55;;;;;;;;;;5131788;27;20036;-82
2023/10/20 02:34:00;;;;;;;0.63;0.43;;;;;;;;;;5113837;27;20090;-83
2023/10/20 02:36:28;;;;;;;1.13;0.90;;;;;;;;;;5130452;27;20062;-80
2023/10/20 02:38:55;;;;;;;1.27;1.17;;;;;;;;;;5114018;27;20497;-82
2023/10/20 02:41:21;;;;;;;0.45;0.40;;;;;;;;;;5116439;27;20063;-82
2023/10/20 02:43:48;;;;;;;0.90;0.82;;;;;;;;;;5131548;27;20039;-82
2023/10/20 02:46:16;;;;;;;0.10;0.10;;;;;;;;;;5112722;27;20055;-82
2023/10/20 02:48:42;;;;;;;0.52;0.52;;;;;;;;;;5134536;27;20092;-81
2023/10/20 02:51:13;;;;;;;1.13;0.50;;;;;;;;;;5116635;27;20381;-81
2023/10/20 02:53:40;;;;;;;0.40;0.20;;;;;;;;;;5133854;27;20058;-81
2023/10/20 02:56:11;;;;;;;0.40;0.40;;;;;;;;;;5107072;27;20125;-81
2023/10/20 02:58:38;;;;;;;1.38;0.73;;;;;;;;;;5114385;27;20125;-81
2023/10/20 03:01:05;;;;;;;0.20;0.20;;;;;;;;;;5130274;27;20051;-81
2023/10/20 03:03:32;;;;;;;3.42;1.38;;;;;;;;;;5113740;27;20509;-82
2023/10/20 03:05:59;;;;;;;0.20;0.20;;;;;;;;;;5113793;27;20040;-81
2023/10/20 03:08:29;;;;;;;0.25;0.25;;;;;;;;;;5130757;27;20063;-81
2023/10/20 03:10:56;;;;;;;0.22;0.22;;;;;;;;;;5129380;27;20058;-81
2023/10/20 03:13:23;;;;;;;1.23;0.73;;;;;;;;;;5110413;27;21029;-81
2023/10/20 03:15:50;;;;;;;0.30;0.30;;;;;;;;;;5122835;27;20060;-81
2023/10/20 03:18:16;;;;;;;1.55;1.15;;;;;;;;;;5129107;27;20044;-81
2023/10/20 03:20:43;;;;;;;1.00;0.82;;;;;;;;;;5112003;27;21005;-81
2023/10/20 03:23:10;;;;;;;0.98;0.98;;;;;;;;;;5130325;27;20063;-81
2023/10/20 03:25:37;;;;;;;0.40;0.40;;;;;;;;;;5111249;27;20063;-81
2023/10/20 03:28:05;;;;;;;0.55;0.50;;;;;;;;;;5132426;27;20097;-81
2023/10/20 03:30:35;;;;;;;4.40;1.33;;;;;;;;;;5139201;27;20269;-81
2023/10/20 03:33:03;;;;;;;2.13;2.03;;;;;;;;;;5111123;27;20047;-81
2023/10/20 03:35:29;;;;;;;0.70;0.57;;;;;;;;;;5111264;27;20052;-81
2023/10/20 03:37:58;;;;;;;0.63;0.63;;;;;;;;;;5113800;27;20521;-81
2023/10/20 03:40:47;;;;;;;0.10;0.10;;;;;;;;;;5113055;27;20056;-81
2023/10/20 03:43:12;;;;;;;0.10;0.10;;;;;;;;;;5128249;27;20052;-81
2023/10/20 03:45:41;;;;;;;0.52;0.40;;;;;;;;;;5110931;27;20048;-81
2023/10/20 03:48:09;;;;;;;0.50;0.50;;;;;;;;;;5111611;27;20064;-81
2023/10/20 03:50:38;;;;;;;0.30;0.30;;;;;;;;;;5114416;27;20055;-81
2023/10/20 03:53:06;;;;;;;0.90;0.90;;;;;;;;;;5111962;27;20572;-81
2023/10/20 03:55:33;;;;;;;2.40;1.48;;;;;;;;;;5122593;27;20073;-81
2023/10/20 03:58:01;;;;;;;1.77;0.68;;;;;;;;;;5109402;27;20066;-81
2023/10/20 04:00:31;;;;;;;4.53;0.85;;;;;;;;;;5112813;27;20059;-81
2023/10/20 04:02:58;;;;;;;0.10;0.10;;;;;;;;;;5112613;27;20051;-81
2023/10/20 04:05:26;;;;;;;1.02;0.80;;;;;;;;;;5111682;27;20051;-81
2023/10/20 04:07:52;;;;;;;0.30;0.30;;;;;;;;;;5108728;27;20055;-81
2023/10/20 04:10:19;;;;;;;0.10;0.10;;;;;;;;;;5115789;27;20138;-82
2023/10/20 04:12:47;;;;;;;0.20;0.20;;;;;;;;;;5134406;27;20044;-81
2023/10/20 04:15:19;;;;;;;0.30;0.30;;;;;;;;;;5117532;27;20054;-81
2023/10/20 04:17:51;;;;;;;0.30;0.30;;;;;;;;;;5109653;27;20056;-81
2023/10/20 04:20:19;;;;;;;0.22;0.22;;;;;;;;;;5133899;27;20052;-81
2023/10/20 04:22:50;;;;;;;0.63;0.52;;;;;;;;;;5114362;27;20086;-81
2023/10/20 04:25:17;;;;;;;0.20;0.20;;;;;;;;;;5115675;27;20109;-81
2023/10/20 05:06:12;;;;;;;0.20;0.20;;;;;;;;;;5126942;27;20052;-80
2023/10/20 05:10:37;;;;;;;0.30;0.30;;;;;;;;;;5130488;27;20062;-80
2023/10/20 05:13:07;;;;;;;1.45;0.95;;;;;;;;;;5132771;27;20056;-81
2023/10/20 05:15:38;;;;;;;0.28;0.28;;;;;;;;;;5113970;27;20066;-81
2023/10/20 05:18:19;;;;;;;0.73;0.73;;;;;;;;;;5117279;27;20055;-81
2023/10/20 05:20:46;;;;;;;0.10;0.10;;;;;;;;;;5111180;27;20056;-81
2023/10/20 05:23:16;;;;;;;5.05;2.05;;;;;;;;;;5116299;27;20128;-79
2023/10/20 05:25:46;;;;;;;0.10;0.10;;;;;;;;;;5130656;27;20062;-80
2023/10/20 05:28:16;;;;;;;0.80;0.73;;;;;;;;;;5107717;27;20101;-81
2023/10/20 05:30:43;;;;;;;0.73;0.63;;;;;;;;;;5106417;27;20505;-81
2023/10/20 05:33:11;;;;;;;0.30;0.30;;;;;;;;;;5108387;27;20114;-82
2023/10/20 05:35:38;;;;;;;0.10;0.10;;;;;;;;;;5115494;27;20055;-81
2023/10/20 05:38:07;;;;;;;0.50;0.50;;;;;;;;;;5110015;27;20055;-82
2023/10/20 05:40:35;;;;;;;0.63;0.60;;;;;;;;;;5126648;27;20079;-81
2023/10/20 05:43:08;;;;;;;0.68;0.65;;;;;;;;;;5112201;27;20062;-81
2023/10/20 05:45:39;;;;;;;0.32;0.32;;;;;;;;;;5115559;27;20039;-82
2023/10/20 05:48:06;;;;;;;1.10;0.85;;;;;;;;;;5112280;27;20043;-81
2023/10/20 05:50:36;;;;;;;0.50;0.50;;;;;;;;;;5132179;27;20044;-82
2023/10/20 05:53:03;;;;;;;0.20;0.20;;;;;;;;;;5116569;27;20055;-82
2023/10/20 05:55:31;;;;;;;0.10;0.10;;;;;;;;;;5115255;27;20591;-81
2023/10/20 05:57:58;;;;;;;1.25;1.02;;;;;;;;;;5111594;27;20040;-81
2023/10/20 06:00:25;;;;;;;0.20;0.20;;;;;;;;;;5111139;27;20055;-82
2023/10/20 06:02:52;;;;;;;0.20;0.20;;;;;;;;;;5114870;27;20803;-81
2023/10/20 06:05:19;;;;;;;0.10;0.10;;;;;;;;;;5132284;27;20052;-81
2023/10/20 06:07:47;;;;;;;0.22;0.22;;;;;;;;;;5132346;27;20055;-82
2023/10/20 06:10:22;;;;;;;0.10;0.10;;;;;;;;;;5108523;27;20323;-82
2023/10/20 06:12:52;;;;;;;0.10;0.10;;;;;;;;;;5113164;27;20055;-82
2023/10/20 06:15:21;;;;;;;0.10;0.10;;;;;;;;;;5113368;27;20516;-80
2023/10/20 06:17:51;;;;;;;0.20;0.20;;;;;;;;;;5116211;27;20044;-81
2023/10/20 06:20:18;;;;;;;2.50;2.33;;;;;;;;;;5129469;27;20512;-82
2023/10/20 06:22:45;;;;;;;0.10;0.10;;;;;;;;;;5113204;27;20052;-81
2023/10/20 06:25:14;;;;;;;0.47;0.47;;;;;;;;;;5132114;27;20055;-82
2023/10/20 06:27:42;;;;;;;0.10;0.10;;;;;;;;;;5113271;27;20133;-82
2023/10/20 06:32:42;;;;;;;0.57;0.57;;;;;;;;;;5111030;27;20056;-77
2023/10/20 06:35:09;;;;;;;0.52;0.52;;;;;;;;;;5107668;27;20054;-78
2023/10/20 06:37:41;;;;;;;0.10;0.10;;;;;;;;;;5108922;27;20171;-78
2023/10/20 06:40:12;;;;;;;2.03;0.82;;;;;;;;;;5108939;27;20063;-78
2023/10/20 06:42:38;;;;;;;0.10;0.10;;;;;;;;;;5108274;27;20105;-77
2023/10/20 06:45:05;;;;;;;0.22;0.22;;;;;;;;;;5106984;27;20058;-78
2023/10/20 06:47:32;;;;;;;0.10;0.10;;;;;;;;;;5110335;27;20537;-77
2023/10/20 06:49:59;;;;;;;0.30;0.30;;;;;;;;;;5117054;27;20047;-78
2023/10/20 06:52:25;;;;;;;0.10;0.10;;;;;;;;;;5103907;27;20059;-77
2023/10/20 06:54:56;;;;;;;0.10;0.10;;;;;;;;;;5108201;28;20067;-78
2023/10/20 06:57:42;;;;;;;2.30;0.50;;;;;;;;;;5104253;28;20050;-77
2023/10/20 07:00:16;;;;;;;0.10;0.10;;;;;;;;;;5108877;27;20143;-77
2023/10/20 07:02:43;;;;;;;0.10;0.10;;;;;;;;;;5109291;27;20044;-78
2023/10/20 07:05:10;;;;;;;0.32;0.32;;;;;;;;;;5109831;27;20047;-77
2023/10/20 07:07:36;;;;;;;0.20;0.20;;;;;;;;;;5108941;27;20997;-77
2023/10/20 07:10:03;;;;;;;0.98;0.93;;;;;;;;;;5122985;27;20045;-77
2023/10/20 07:12:30;;;;;;;0.20;0.20;;;;;;;;;;5106702;27;20134;-77
2023/10/20 07:14:56;;;;;;;0.10;0.10;;;;;;;;;;5110087;28;20585;-77
2023/10/20 07:17:22;;;;;;;2.28;0.55;;;;;;;;;;5111465;27;20048;-78
2023/10/20 07:19:49;;;;;;;0.40;0.40;;;;;;;;;;5109654;27;20060;-78
2023/10/20 07:22:15;;;;;;;0.50;0.50;;;;;;;;;;5106736;28;20792;-78
2023/10/20 07:24:42;;;;;;;0.20;0.20;;;;;;;;;;5106286;27;20068;-77
2023/10/20 07:27:10;;;;;;;0.32;0.32;;;;;;;;;;5107976;27;20055;-78
2023/10/20 07:29:36;;;;;;;0.30;0.30;;;;;;;;;;5108239;28;20048;-78
2023/10/20 07:32:12;;;;;;;0.20;0.20;;;;;;;;;;5107928;28;20056;-78
2023/10/20 07:34:38;;;;;;;0.25;0.25;;;;;;;;;;5106186;27;20044;-77
2023/10/20 07:37:06;;;;;;;0.28;0.28;;;;;;;;;;5110609;27;20020;-77
2023/10/20 07:39:36;;;;;;;0.70;0.70;;;;;;;;;;5119316;27;20056;-76
2023/10/20 07:42:02;;;;;;;0.30;0.30;;;;;;;;;;5104673;27;20056;-76
2023/10/20 07:44:29;;;;;;;0.45;0.45;;;;;;;;;;5108534;27;20105;-76
2023/10/20 07:46:55;;;;;;;1.33;1.23;;;;;;;;;;5109974;28;20052;-77
2023/10/20 07:49:21;;;;;;;0.90;0.68;;;;;;;;;;5106531;27;20048;-78
2023/10/20 07:51:48;;;;;;;0.10;0.10;;;;;;;;;;5104541;27;20131;-78
2023/10/20 07:54:15;;;;;;;0.32;0.32;;;;;;;;;;5114407;27;20056;-78
2023/10/20 07:56:41;;;;;;;0.20;0.20;;;;;;;;;;5109173;27;20032;-77
2023/10/20 07:59:08;;;;;;;1.13;0.82;;;;;;;;;;5116275;27;20052;-76
2023/10/20 08:01:34;;;;;;;0.57;0.57;;;;;;;;;;5108343;27;20194;-79
2023/10/20 08:04:02;;;;;;;0.15;0.15;;;;;;;;;;5106686;27;20059;-79
2023/10/20 08:06:29;;;;;;;1.33;0.75;;;;;;;;;;5104902;27;20060;-78
2023/10/20 08:08:55;;;;;;;0.28;0.25;;;;;;;;;;5106365;27;20511;-79
2023/10/20 08:11:22;;;;;;;0.10;0.10;;;;;;;;;;5109198;28;20498;-79
2023/10/20 08:13:51;;;;;;;0.10;0.10;;;;;;;;;;5110554;27;20078;-79
2023/10/20 08:16:18;;;;;;;0.93;0.75;;;;;;;;;;5110462;27;20135;-78
2023/10/20 08:18:45;;;;;;;0.20;0.20;;;;;;;;;;5110130;27;20087;-78
2023/10/20 08:21:11;;;;;;;0.10;0.10;;;;;;;;;;5109706;27;20173;-78
2023/10/20 08:23:38;;;;;;;0.10;0.10;;;;;;;;;;5110802;27;20048;-78
2023/10/20 08:26:05;;;;;;;0.20;0.20;;;;;;;;;;5108574;28;20505;-79
2023/10/20 08:28:31;;;;;;;0.10;0.10;;;;;;;;;;5112688;27;20091;-78
2023/10/20 08:31:05;;;;;;;0.10;0.10;;;;;;;;;;5108032;27;20051;-78
2023/10/20 08:33:31;;;;;;;0.30;0.30;;;;;;;;;;5117559;27;20056;-78
2023/10/20 08:35:58;;;;;;;0.32;0.32;;;;;;;;;;5112982;27;20051;-78
2023/10/20 08:38:24;;;;;;;0.10;0.10;;;;;;;;;;5109129;27;20117;-78
2023/10/20 08:40:54;;;;;;;0.10;0.10;;;;;;;;;;5114134;28;20517;-78
2023/10/20 08:43:27;;;;;;;0.85;0.85;;;;;;;;;;5107349;27;20048;-78
2023/10/20 08:45:54;;;;;;;0.65;0.47;;;;;;;;;;5107762;28;20055;-78
2023/10/20 08:48:20;;;;;;;0.43;0.43;;;;;;;;;;5109160;27;20052;-78
2023/10/20 08:50:50;;;;;;;0.10;0.10;;;;;;;;;;5110625;28;20506;-78
2023/10/20 08:53:18;;;;;;;0.10;0.10;;;;;;;;;;5110564;27;20076;-78
2023/10/20 08:55:47;;;;;;;0.10;0.10;;;;;;;;;;5110399;27;20125;-78
2023/10/20 08:58:13;;;;;;;0.10;0.10;;;;;;;;;;5111239;27;20051;-78
2023/10/20 09:00:40;;;;;;;0.20;0.20;;;;;;;;;;5109880;27;20513;-78
2023/10/20 09:03:23;;;;;;;0.10;0.10;;;;;;;;;;5102926;28;20257;-78
2023/10/20 09:05:49;;;;;;;0.10;0.10;;;;;;;;;;5110480;27;20498;-79
2023/10/20 09:08:16;;;;;;;0.10;0.10;;;;;;;;;;5109833;27;20074;-78
2023/10/20 09:10:43;;;;;;;0.10;0.10;;;;;;;;;;5110085;27;20149;-78
2023/10/20 09:13:09;;;;;;;0.10;0.10;;;;;;;;;;5111147;28;20117;-78
2023/10/20 09:15:35;;;;;;;0.10;0.10;;;;;;;;;;5110356;27;20056;-78
2023/10/20 09:18:02;;;;;;;0.10;0.10;;;;;;;;;;5103584;27;20052;-78
2023/10/20 09:20:29;;;;;;;0.10;0.10;;;;;;;;;;5112446;27;20052;-78
2023/10/20 09:22:55;;;;;;;0.10;0.10;;;;;;;;;;5112187;27;20105;-78
2023/10/20 09:25:22;;;;;;;0.10;0.10;;;;;;;;;;5109556;28;20139;-79
2023/10/20 09:27:48;;;;;;;0.10;0.10;;;;;;;;;;5110152;27;20060;-78
2023/10/20 09:30:15;;;;;;;0.85;0.43;;;;;;;;;;5110696;27;20044;-79
2023/10/20 09:32:41;;;;;;;0.10;0.10;;;;;;;;;;5111749;28;20056;-78
2023/10/20 09:35:08;;;;;;;0.10;0.10;;;;;;;;;;5112058;28;20094;-78
2023/10/20 09:37:38;;;;;;;0.10;0.10;;;;;;;;;;5112617;28;20052;-78
2023/10/20 09:40:06;;;;;;;0.10;0.10;;;;;;;;;;5111381;27;20055;-79
2023/10/20 09:42:52;;;;;;;0.10;0.10;;;;;;;;;;5107428;27;20044;-79
2023/10/20 09:45:23;;;;;;;0.10;0.10;;;;;;;;;;5100703;27;20052;-79
2023/10/20 09:47:52;;;;;;;;;;;;;;;;;;5109037;28;20367;-79
2023/10/20 09:50:20;;;;;;;0.35;0.35;;;;;;;;;;5114959;27;46636;-78
2023/10/20 09:52:47;;;;;;;0.10;0.10;;;;;;;;;;5125333;28;20048;-79
2023/10/20 09:55:14;;;;;;;0.10;0.10;;;;;;;;;;5129715;27;20051;-79
2023/10/20 09:57:40;;;;;;;0.10;0.10;;;;;;;;;;5121089;28;20036;-79
2023/10/20 10:00:08;;;;;;;0.10;0.10;;;;;;;;;;5117625;27;20052;-79
2023/10/20 10:02:34;;;;;;;0.10;0.10;;;;;;;;;;5112229;27;20052;-82
2023/10/20 10:05:01;;;;;;;0.10;0.10;;;;;;;;;;5116632;28;20062;-80
2023/10/20 10:07:29;;;;;;;0.10;0.10;;;;;;;;;;5113010;27;20078;-80
2023/10/20 10:09:56;;;;;;;0.10;0.10;;;;;;;;;;5109245;27;20098;-78
2023/10/20 10:12:24;;;;;;;0.10;0.10;;;;;;;;;;5110319;27;20551;-79
2023/10/20 10:14:57;;;;;;;0.10;0.10;;;;;;;;;;5111160;27;20102;-78
2023/10/20 10:17:26;;;;;;;0.10;0.10;;;;;;;;;;5113515;28;20125;-78
2023/10/20 10:19:53;;;;;;;0.40;0.40;;;;;;;;;;5118843;27;20105;-78
2023/10/20 10:22:26;;;;;;;0.10;0.10;;;;;;;;;;5107948;28;20051;-78
2023/10/20 10:24:54;;;;;;;0.10;0.10;;;;;;;;;;5122000;27;20056;-78
2023/10/20 10:27:22;;;;;;;0.10;0.10;;;;;;;;;;5099974;28;20567;-78
2023/10/20 10:30:05;;;;;;;0.45;0.45;;;;;;;;;;5099251;28;20515;-79
2023/10/20 10:32:33;;;;;;;0.10;0.10;;;;;;;;;;5107673;28;20052;-79
2023/10/20 10:35:03;;;;;;;0.10;0.10;;;;;;;;;;5108215;27;20065;-80
2023/10/20 10:37:34;;;;;;;0.10;0.10;;;;;;;;;;5104107;28;20048;-82
2023/10/20 10:40:07;;;;;;;0.20;0.20;;;;;;;;;;5110618;27;20052;-80
2023/10/20 10:42:40;;;;;;;0.10;0.10;;;;;;;;;;5103503;28;20039;-80
2023/10/20 10:45:34;;;;;;;0.10;0.10;;;;;;;;;;5107909;27;20052;-80
2023/10/20 10:48:14;;;;;;;0.10;0.10;;;;;;;;;;5103036;27;20135;-80
2023/10/20 10:50:41;;;;;;;;;;;;;;;;;;5107793;28;20055;-80
2023/10/20 10:53:08;;;;;;;0.10;0.10;;;;;;;;;;5104792;27;43473;-80
2023/10/20 10:55:35;;;;;;;0.10;0.10;;;;;;;;;;5104403;27;20055;-81
2023/10/20 10:58:04;;;;;;;0.00;0.00;;;;;;;;;;5106228;27;20055;-79
2023/10/20 11:00:31;;;;;;;0.30;0.30;;;;;;;;;;5105472;28;20472;-81
2023/10/20 11:02:58;;;;;;;0.20;0.20;;;;;;;;;;5102593;27;20913;-81
2023/10/20 11:05:25;;;;;;;0.30;0.30;;;;;;;;;;5098290;28;20600;-80
2023/10/20 11:08:01;;;;;;;0.10;0.10;;;;;;;;;;5102867;27;20780;-81
2023/10/20 11:10:28;;;;;;;0.10;0.10;;;;;;;;;;5107617;27;20103;-81
2023/10/20 11:12:55;;;;;;;0.28;0.20;;;;;;;;;;5108927;27;20055;-80
2023/10/20 11:15:24;;;;;;;0.10;0.10;;;;;;;;;;5114412;27;20564;-81
2023/10/20 11:17:50;;;;;;;0.10;0.10;;;;;;;;;;5106332;27;20051;-80
2023/10/20 11:20:18;;;;;;;0.10;0.10;;;;;;;;;;5126530;27;20056;-80
2023/10/20 11:22:45;;;;;;;0.10;0.10;;;;;;;;;;5109898;28;20052;-82
2023/10/20 11:25:19;;;;;;;0.10;0.10;;;;;;;;;;5111761;28;20055;-82
2023/10/20 11:27:53;;;;;;;0.10;0.10;;;;;;;;;;5105965;27;20446;-81
2023/10/20 11:30:24;;;;;;;0.10;0.10;;;;;;;;;;5109997;27;20125;-79
2023/10/20 11:32:54;;;;;;;0.10;0.10;;;;;;;;;;5112007;27;20082;-81
2023/10/20 11:35:21;;;;;;;0.10;0.10;;;;;;;;;;5111031;28;20091;-81
2023/10/20 11:37:48;;;;;;;0.10;0.10;;;;;;;;;;5110380;27;20161;-80
2023/10/20 11:40:15;;;;;;;0.10;0.10;;;;;;;;;;5108432;27;20059;-79
2023/10/20 11:42:42;;;;;;;0.10;0.10;;;;;;;;;;5118328;27;20058;-80
2023/10/20 11:45:10;;;;;;;0.10;0.10;;;;;;;;;;5108887;27;20113;-79
2023/10/20 11:47:39;;;;;;;0.10;0.10;;;;;;;;;;5110506;27;20560;-81
2023/10/20 11:50:08;;;;;;;0.10;0.10;;;;;;;;;;5105436;27;20053;-81
2023/10/20 11:52:35;;;;;;;0.10;0.10;;;;;;;;;;5112629;27;20110;-81
2023/10/20 11:55:03;;;;;;;0.10;0.10;;;;;;;;;;5123043;27;20048;-80
2023/10/20 11:57:31;;;;;;;0.10;0.10;;;;;;;;;;5107270;27;20048;-80
2023/10/20 11:59:58;;;;;;;0.10;0.10;;;;;;;;;;5103220;28;20074;-79
2023/10/20 12:02:25;;;;;;;0.30;0.30;;;;;;;;;;5110879;27;20063;-81
2023/10/20 12:04:51;;;;;;;0.20;0.20;;;;;;;;;;5107735;27;20083;-81
2023/10/20 12:07:18;;;;;;;0.28;0.20;;;;;;;;;;5104613;27;20058;-80
2023/10/20 12:09:45;;;;;;;0.10;0.10;;;;;;;;;;5105865;27;20048;-81
2023/10/20 12:12:12;;;;;;;0.10;0.10;;;;;;;;;;5100107;27;20106;-81
2023/10/20 12:14:41;;;;;;;0.30;0.30;;;;;;;;;;5109742;27;20047;-82
2023/10/20 12:17:15;;;;;;;0.10;0.10;;;;;;;;;;5131459;27;20044;-81
2023/10/20 12:19:48;;;;;;;0.10;0.10;;;;;;;;;;5115060;27;20044;-82
2023/10/20 12:22:28;;;;;;;0.17;0.17;;;;;;;;;;5117881;28;20127;-81
2023/10/20 12:25:03;;;;;;;0.10;0.10;;;;;;;;;;5134554;27;20063;-81
2023/10/20 12:27:31;;;;;;;0.10;0.10;;;;;;;;;;5122660;27;20048;-82
2023/10/20 12:30:00;;;;;;;0.10;0.10;;;;;;;;;;5109771;27;20065;-81
2023/10/20 12:32:33;;;;;;;0.30;0.30;;;;;;;;;;5116326;28;20103;-82
2023/10/20 12:35:06;;;;;;;0.10;0.10;;;;;;;;;;5116563;27;20071;-81
2023/10/20 12:37:36;;;;;;;;;;;;;;;;;;5129999;27;20071;-81
2023/10/20 12:40:08;;;;;;;0.10;0.10;;;;;;;;;;5114803;27;43109;-82
2023/10/20 12:42:40;;;;;;;0.10;0.10;;;;;;;;;;5107752;28;20800;-82
2023/10/20 12:45:16;;;;;;;0.63;0.47;;;;;;;;;;5134063;27;20035;-81
2023/10/20 12:47:43;;;;;;;3.60;0.95;;;;;;;;;;5131039;27;20703;-81
2023/10/20 12:50:10;;;;;;;0.10;0.10;;;;;;;;;;5123513;27;20549;-82
2023/10/20 12:52:37;;;;;;;0.20;0.20;;;;;;;;;;5106641;28;20840;-81
2023/10/20 12:55:05;;;;;;;0.10;0.10;;;;;;;;;;5117712;27;20927;-81
2023/10/20 12:57:32;;;;;;;0.10;0.10;;;;;;;;;;5113042;27;20059;-82
2023/10/20 13:00:00;;;;;;;0.20;0.20;;;;;;;;;;5114701;27;20326;-80
2023/10/20 13:02:27;;;;;;;0.10;0.10;;;;;;;;;;5125435;27;20059;-81
2023/10/20 13:04:54;;;;;;;0.10;0.10;;;;;;;;;;5106995;27;20096;-81
2023/10/20 13:07:21;;;;;;;0.20;0.20;;;;;;;;;;5124459;27;20056;-80
2023/10/20 13:09:48;;;;;;;0.10;0.10;;;;;;;;;;5108838;27;20135;-80
2023/10/20 13:12:16;;;;;;;0.10;0.10;;;;;;;;;;5124894;27;20111;-81
2023/10/20 13:14:43;;;;;;;0.10;0.10;;;;;;;;;;5130264;27;20056;-81
2023/10/20 13:17:09;;;;;;;0.10;0.10;;;;;;;;;;5113212;27;20053;-81
2023/10/20 13:19:37;;;;;;;0.10;0.10;;;;;;;;;;5128612;27;20048;-80
2023/10/20 13:22:04;;;;;;;0.10;0.10;;;;;;;;;;5127228;27;20048;-80
2023/10/20 13:24:32;;;;;;;0.10;0.10;;;;;;;;;;5108399;28;20143;-80
2023/10/20 13:27:00;;;;;;;0.10;0.10;;;;;;;;;;5108938;27;20044;-81
2023/10/20 13:29:26;;;;;;;0.10;0.10;;;;;;;;;;5136367;22;20066;-77
2023/10/20 13:31:52;;;;;;;0.10;0.10;;;;;;;;;;5117034;27;20051;-77
2023/10/20 13:34:19;;;;;;;0.10;0.10;;;;;;;;;;5123405;27;20047;-77
2023/10/20 13:36:46;;;;;;;0.10;0.10;;;;;;;;;;5117584;27;20052;-77
2023/10/20 13:39:16;;;;;;;0.52;0.52;;;;;;;;;;5129295;27;20051;-77
2023/10/20 13:41:56;;;;;;;0.10;0.10;;;;;;;;;;5128525;27;20044;-77
2023/10/20 13:44:23;;;;;;;0.10;0.10;;;;;;;;;;5128383;27;20134;-77
2023/10/20 13:46:50;;;;;;;0.20;0.20;;;;;;;;;;5128280;27;20489;-77
2023/10/20 13:49:17;;;;;;;0.10;0.10;;;;;;;;;;5126231;27;20151;-77
2023/10/20 13:51:43;;;;;;;0.10;0.10;;;;;;;;;;5112134;27;20682;-77
2023/10/20 13:54:13;;;;;;;0.10;0.10;;;;;;;;;;5117589;27;20052;-77
2023/10/20 13:56:40;;;;;;;0.10;0.10;;;;;;;;;;5127003;27;20079;-76
2023/10/20 13:59:08;;;;;;;0.20;0.20;;;;;;;;;;5123098;27;20449;-76
2023/10/20 14:01:36;;;;;;;0.38;0.38;;;;;;;;;;5121137;27;20052;-76
2023/10/20 14:04:06;;;;;;;0.10;0.10;;;;;;;;;;5124872;27;20104;-76
2023/10/20 14:06:33;;;;;;;0.10;0.10;;;;;;;;;;5116685;27;20078;-76
2023/10/20 14:09:00;;;;;;;0.10;0.10;;;;;;;;;;5117396;27;20530;-76
2023/10/20 14:11:27;;;;;;;0.10;0.10;;;;;;;;;;5121481;27;20059;-76
2023/10/20 14:13:53;;;;;;;0.10;0.10;;;;;;;;;;5129755;27;20586;-75
2023/10/20 14:16:20;;;;;;;0.10;0.10;;;;;;;;;;5129830;27;20048;-75
2023/10/20 14:18:47;;;;;;;0.10;0.10;;;;;;;;;;5126333;27;20108;-76
2023/10/20 14:21:14;;;;;;;0.10;0.10;;;;;;;;;;5120348;27;20060;-76
2023/10/20 14:23:43;;;;;;;0.20;0.20;;;;;;;;;;5124982;27;20562;-76
2023/10/20 14:26:09;;;;;;;0.10;0.10;;;;;;;;;;5113663;27;20092;-76
2023/10/20 14:28:36;;;;;;;0.10;0.10;;;;;;;;;;5115958;27;20063;-77
2023/10/20 14:31:04;;;;;;;0.10;0.10;;;;;;;;;;5120236;27;20048;-77
2023/10/20 14:33:30;;;;;;;0.10;0.10;;;;;;;;;;5122504;27;20065;-76
2023/10/20 14:35:57;;;;;;;0.10;0.10;;;;;;;;;;5125997;27;20461;-77
2023/10/20 14:38:24;;;;;;;0.10;0.10;;;;;;;;;;5123598;27;20432;-77
2023/10/20 14:41:01;;;;;;;0.10;0.10;;;;;;;;;;5121292;27;20051;-77
2023/10/20 14:43:35;;;;;;;0.10;0.10;;;;;;;;;;5114564;27;20087;-77
2023/10/20 14:46:02;;;;;;;0.10;0.10;;;;;;;;;;5126904;27;20055;-77
2023/10/20 14:48:29;;;;;;;0.10;0.10;;;;;;;;;;5114106;27;20068;-77
2023/10/20 14:50:56;;;;;;;0.10;0.10;;;;;;;;;;5128066;27;20056;-77
2023/10/20 14:53:23;;;;;;;0.10;0.10;;;;;;;;;;5117002;27;20496;-77
2023/10/20 14:55:50;;;;;;;0.10;0.10;;;;;;;;;;5126596;27;20068;-77
2023/10/20 14:58:17;;;;;;;0.10;0.10;;;;;;;;;;5123483;27;20062;-77
2023/10/20 15:00:47;;;;;;;0.10;0.10;;;;;;;;;;5119554;27;20062;-77
2023/10/20 15:03:14;;;;;;;0.10;0.10;;;;;;;;;;5127697;27;20040;-77
2023/10/20 15:05:41;;;;;;;0.30;0.30;;;;;;;;;;5117674;27;20156;-78
2023/10/20 15:08:08;;;;;;;0.10;0.10;;;;;;;;;;5121040;27;20804;-78
2023/10/20 15:10:34;;;;;;;0.10;0.10;;;;;;;;;;5124256;27;20130;-78
2023/10/20 15:13:03;;;;;;;0.10;0.10;;;;;;;;;;5129803;27;20055;-78
2023/10/20 15:15:30;;;;;;;0.10;0.10;;;;;;;;;;5125770;27;20505;-78
2023/10/20 15:17:57;;;;;;;0.10;0.10;;;;;;;;;;5122138;27;20901;-78
2023/10/20 15:20:24;;;;;;;0.10;0.10;;;;;;;;;;5117598;27;20060;-78
2023/10/20 15:22:51;;;;;;;0.10;0.10;;;;;;;;;;5112067;27;20052;-77
2023/10/20 15:25:28;;;;;;;0.40;0.40;;;;;;;;;;5113696;27;20132;-77
2023/10/20 15:27:54;;;;;;;0.10;0.10;;;;;;;;;;5121867;27;20483;-77
2023/10/20 15:30:22;;;;;;;0.10;0.10;;;;;;;;;;5118468;27;20072;-77
2023/10/20 15:32:48;;;;;;;0.10;0.10;;;;;;;;;;5119787;27;20207;-76